Latest Weather Observations for Busselton Jetty

IDW60801

Issued at 1:05 pm WST Tuesday 21 October 2014 (issued every 30 minutes, with the page automatically refreshed every 10 minutes)

About weather observations | Map of weather stations | Latest weather observations for WA | Other Formats
Station Details ID: 009937 Name: BUSSELTON JETTY Lat: -33.63 Lon: 115.34 Height: 3.0 m
Data from the previous 72 hours. | See also: Recent months for locations in Western Australia
Date/Time
WST
Temp
°C
App
Temp
°C
Dew
Point
Rel
Hum
%
Delta-T
°C
Wind Press
QNH
hPa
Press
MSL
hPa
Rain
since 9 am
mm
Dir
 
Spd
km/h
Gust
km/h
Spd
kts
Gust
kts
21/01:00pm - - - - - NNW 15 17 8 9 - - -
21/12:30pm - - - - - N 17 20 9 11 - - -
21/12:00pm - - - - - N 15 17 8 9 - - -
21/11:30am - - - - - NE 11 17 6 9 - - -
21/11:00am - - - - - NNE 7 11 4 6 - - -
21/10:30am - - - - - ENE 9 13 5 7 - - -
21/10:00am - - - - - ESE 13 17 7 9 - - -
21/09:30am - - - - - SE 13 17 7 9 - - -
21/09:00am - - - - - SE 11 17 6 9 - - -
21/08:30am - - - - - SE 11 13 6 7 - - -
21/08:00am - - - - - SE 11 13 6 7 - - -
21/07:30am - - - - - SE 13 13 7 7 - - -
21/07:00am - - - - - SE 11 13 6 7 - - -
21/06:30am - - - - - SE 13 17 7 9 - - -
21/06:00am - - - - - SSE 15 17 8 9 - - -
21/05:30am - - - - - SSE 11 15 6 8 - - -
21/05:00am - - - - - SE 13 15 7 8 - - -
21/04:30am - - - - - SE 13 15 7 8 - - -
21/04:00am - - - - - SSE 13 15 7 8 - - -
21/03:30am - - - - - S 13 15 7 8 - - -
21/03:00am - - - - - S 13 15 7 8 - - -
21/02:30am - - - - - S 13 15 7 8 - - -
21/02:00am - - - - - S 11 15 6 8 - - -
21/01:30am - - - - - SSW 13 15 7 8 - - -
21/01:00am - - - - - SSW 13 15 7 8 - - -
21/12:30am - - - - - S 11 15 6 8 - - -
21/12:00am - - - - - S 13 15 7 8 - - -
 
Date/Time
WST
Temp
°C
App
Temp
°C
Dew
Point
Rel
Hum
%
Delta-T
°C
Wind Press
QNH
hPa
Press
MSL
hPa
Rain
since 9 am
mm
Dir
 
Spd
km/h
Gust
km/h
Spd
kts
Gust
kts
20/11:30pm - - - - - S 13 17 7 9 - - -
20/11:00pm - - - - - SSW 17 19 9 10 - - -
20/10:30pm - - - - - SSW 15 19 8 10 - - -
20/10:00pm - - - - - SSW 13 19 7 10 - - -
20/09:30pm - - - - - SSW 13 17 7 9 - - -
20/09:00pm - - - - - SSW 13 17 7 9 - - -
20/08:30pm - - - - - SW 17 20 9 11 - - -
20/08:00pm - - - - - SW 15 17 8 9 - - -
20/07:30pm - - - - - SW 17 20 9 11 - - -
20/07:00pm - - - - - WSW 19 22 10 12 - - -
20/06:30pm - - - - - WSW 22 26 12 14 - - -
20/06:00pm - - - - - WSW 22 30 12 16 - - -
20/05:30pm - - - - - WSW 28 32 15 17 - - -
20/05:00pm - - - - - W 28 33 15 18 - - -
20/04:30pm - - - - - WSW 28 35 15 19 - - -
20/04:00pm - - - - - W 35 41 19 22 - - -
20/03:30pm - - - - - W 35 41 19 22 - - -
20/03:00pm - - - - - W 32 44 17 24 - - -
20/02:30pm - - - - - WSW 32 37 17 20 - - -
20/02:00pm - - - - - W 35 37 19 20 - - -
20/01:30pm - - - - - W 30 33 16 18 - - -
20/01:00pm - - - - - W 24 32 13 17 - - -
20/12:30pm - - - - - WSW 28 32 15 17 - - -
20/12:00pm - - - - - W 30 37 16 20 - - -
20/11:30am - - - - - W 26 30 14 16 - - -
20/11:00am - - - - - SW 20 28 11 15 - - -
20/10:30am - - - - - W 20 24 11 13 - - -
20/10:00am - - - - - SW 24 32 13 17 - - -
20/09:30am - - - - - SSW 28 32 15 17 - - -
20/09:00am - - - - - SSW 24 33 13 18 - - -
20/08:30am - - - - - SW 32 39 17 21 - - -
20/08:00am - - - - - SW 33 41 18 22 - - -
20/07:30am - - - - - SW 30 37 16 20 - - -
20/07:00am - - - - - SW 26 32 14 17 - - -
20/06:30am - - - - - SW 22 26 12 14 - - -
20/06:00am - - - - - WSW 19 24 10 13 - - -
20/05:30am - - - - - WSW 20 26 11 14 - - -
20/05:00am - - - - - WSW 24 28 13 15 - - -
20/04:30am - - - - - WSW 22 28 12 15 - - -
20/04:00am - - - - - WSW 20 28 11 15 - - -
20/03:30am - - - - - WSW 22 26 12 14 - - -
20/03:00am - - - - - WSW 20 26 11 14 - - -
20/02:30am - - - - - W 19 20 10 11 - - -
20/02:00am - - - - - SW 19 26 10 14 - - -
20/01:30am - - - - - SW 19 24 10 13 - - -
20/01:00am - - - - - WSW 20 26 11 14 - - -
20/12:30am - - - - - SW 20 28 11 15 - - -
20/12:00am - - - - - SW 22 28 12 15 - - -
 
Date/Time
WST
Temp
°C
App
Temp
°C
Dew
Point
Rel
Hum
%
Delta-T
°C
Wind Press
QNH
hPa
Press
MSL
hPa
Rain
since 9 am
mm
Dir
 
Spd
km/h
Gust
km/h
Spd
kts
Gust
kts
19/11:30pm - - - - - SW 24 32 13 17 - - -
19/11:00pm - - - - - SW 24 28 13 15 - - -
19/10:30pm - - - - - SSW 24 26 13 14 - - -
19/10:00pm - - - - - SSW 24 30 13 16 - - -
19/09:30pm - - - - - SSW 22 30 12 16 - - -
19/09:00pm - - - - - SW 24 30 13 16 - - -
19/08:30pm - - - - - SSW 26 33 14 18 - - -
19/08:00pm - - - - - S 24 30 13 16 - - -
19/07:30pm - - - - - SSW 22 32 12 17 - - -
19/07:00pm - - - - - S 26 33 14 18 - - -
19/06:30pm - - - - - S 22 32 12 17 - - -
19/06:00pm - - - - - S 30 37 16 20 - - -
19/05:30pm - - - - - SSE 35 46 19 25 - - -
19/05:00pm - - - - - SSE 33 41 18 22 - - -
19/04:30pm - - - - - S 33 41 18 22 - - -
19/04:00pm - - - - - SSE 33 39 18 21 - - -
19/03:30pm - - - - - SSE 32 43 17 23 - - -
19/03:00pm - - - - - SSE 33 43 18 23 - - -
19/02:30pm - - - - - S 35 44 19 24 - - -
19/02:00pm - - - - - SSE 35 43 19 23 - - -
19/01:30pm - - - - - SSE 35 46 19 25 - - -
19/01:00pm - - - - - SSE 37 46 20 25 - - -
19/12:30pm - - - - - SSE 35 46 19 25 - - -
19/12:00pm - - - - - SSE 32 44 17 24 - - -
19/11:30am - - - - - SSE 33 43 18 23 - - -
19/11:00am - - - - - S 35 43 19 23 - - -
19/10:30am - - - - - SSE 35 44 19 24 - - -
19/10:00am - - - - - SSE 39 52 21 28 - - -
19/09:30am - - - - - SSE 43 54 23 29 - - -
19/09:00am - - - - - SSE 39 48 21 26 - - -
19/08:30am - - - - - SSE 33 41 18 22 - - -
19/08:00am - - - - - SSE 30 37 16 20 - - -
19/07:30am - - - - - SSE 30 35 16 19 - - -
19/07:00am - - - - - S 30 39 16 21 - - -
19/06:30am - - - - - S 24 32 13 17 - - -
19/06:00am - - - - - S 24 28 13 15 - - -
19/05:30am - - - - - S 20 26 11 14 - - -
19/05:00am - - - - - S 24 32 13 17 - - -
19/04:30am - - - - - S 30 37 16 20 - - -
19/04:00am - - - - - S 30 35 16 19 - - -
19/03:30am - - - - - S 28 35 15 19 - - -
19/03:00am - - - - - S 26 33 14 18 - - -
19/02:30am - - - - - S 20 28 11 15 - - -
19/02:00am - - - - - S 28 35 15 19 - - -
19/01:30am - - - - - SSE 30 37 16 20 - - -
19/01:00am - - - - - SSE 28 37 15 20 - - -
19/12:30am - - - - - SSE 30 39 16 21 - - -
19/12:00am - - - - - SSE 30 39 16 21 - - -
 
Date/Time
WST
Temp
°C
App
Temp
°C
Dew
Point
Rel
Hum
%
Delta-T
°C
Wind Press
QNH
hPa
Press
MSL
hPa
Rain
since 9 am
mm
Dir
 
Spd
km/h
Gust
km/h
Spd
kts
Gust
kts
18/11:30pm - - - - - SSE 32 41 17 22 - - -
18/11:00pm - - - - - SSE 33 44 18 24 - - -
18/10:30pm - - - - - SSE 39 50 21 27 - - -
18/10:00pm - - - - - SSE 35 44 19 24 - - -
18/09:30pm - - - - - SSE 33 44 18 24 - - -
18/09:00pm - - - - - SSE 30 35 16 19 - - -
18/08:30pm - - - - - S 26 33 14 18 - - -
18/08:00pm - - - - - S 28 33 15 18 - - -
18/07:30pm - - - - - S 32 41 17 22 - - -
18/07:00pm - - - - - SSE 28 33 15 18 - - -
18/06:30pm - - - - - SSE 32 41 17 22 - - -
18/06:06pm - - - - - S 35 56 19 30 - - -
18/06:00pm - - - - - SSE 37 46 20 25 - - -
18/05:30pm - - - - - S 35 44 19 24 - - -
18/05:00pm - - - - - SSE 33 43 18 23 - - -
18/04:30pm - - - - - S 33 43 18 23 - - -
18/04:00pm - - - - - S 33 41 18 22 - - -
18/03:30pm - - - - - SSE 35 48 19 26 - - -
18/03:00pm - - - - - SSE 37 48 20 26 - - -
18/02:30pm - - - - - SSE 35 44 19 24 - - -
18/02:00pm - - - - - SSE 35 43 19 23 - - -
18/01:30pm - - - - - SSE 41 48 22 26 - - -

Other Formats:

Comma delimited format used in spreadsheet applications
http://www.bom.gov.au/fwo/IDW60801/IDW60801.95602.axf

JavaScript Object Notation format (JSON) in row-major order
http://www.bom.gov.au/fwo/IDW60801/IDW60801.95602.json